sensor_id;sensor_type;location;lat;lon;timestamp;pressure;altitude;pressure_sealevel;temperature
72236;BMP280;60146;52.498;13.462;2023-06-04T00:00:05;101900.78;;;15.08
72236;BMP280;60146;52.498;13.462;2023-06-04T00:02:32;101897.94;;;15.05
72236;BMP280;60146;52.498;13.462;2023-06-04T00:04:57;101901.38;;;15.05
72236;BMP280;60146;52.498;13.462;2023-06-04T00:07:22;101901.97;;;15.02
72236;BMP280;60146;52.498;13.462;2023-06-04T00:09:48;101891.41;;;14.97
72236;BMP280;60146;52.498;13.462;2023-06-04T00:12:13;101889.84;;;14.96
72236;BMP280;60146;52.498;13.462;2023-06-04T00:14:39;101888.81;;;14.93
72236;BMP280;60146;52.498;13.462;2023-06-04T00:17:04;101894.66;;;14.90
72236;BMP280;60146;52.498;13.462;2023-06-04T00:19:30;101888.06;;;14.87
72236;BMP280;60146;52.498;13.462;2023-06-04T00:21:55;101875.72;;;14.83
72236;BMP280;60146;52.498;13.462;2023-06-04T00:24:21;101881.00;;;14.83
72236;BMP280;60146;52.498;13.462;2023-06-04T00:26:46;101881.56;;;14.80
72236;BMP280;60146;52.498;13.462;2023-06-04T00:29:12;101871.59;;;14.72
72236;BMP280;60146;52.498;13.462;2023-06-04T00:31:37;101876.38;;;14.70
72236;BMP280;60146;52.498;13.462;2023-06-04T00:34:03;101878.00;;;14.66
72236;BMP280;60146;52.498;13.462;2023-06-04T00:36:29;101879.34;;;14.64
72236;BMP280;60146;52.498;13.462;2023-06-04T00:38:54;101871.97;;;14.61
72236;BMP280;60146;52.498;13.462;2023-06-04T00:41:19;101881.25;;;14.58
72236;BMP280;60146;52.498;13.462;2023-06-04T00:43:45;101881.53;;;14.52
72236;BMP280;60146;52.498;13.462;2023-06-04T00:46:11;101887.88;;;14.51
72236;BMP280;60146;52.498;13.462;2023-06-04T00:48:43;101877.13;;;14.48
72236;BMP280;60146;52.498;13.462;2023-06-04T00:51:10;101876.06;;;14.44
72236;BMP280;60146;52.498;13.462;2023-06-04T00:53:35;101883.47;;;14.42
72236;BMP280;60146;52.498;13.462;2023-06-04T00:56:01;101876.63;;;14.41
72236;BMP280;60146;52.498;13.462;2023-06-04T00:58:26;101875.34;;;14.34
72236;BMP280;60146;52.498;13.462;2023-06-04T01:00:54;101880.41;;;14.30
72236;BMP280;60146;52.498;13.462;2023-06-04T01:03:23;101891.22;;;14.29
72236;BMP280;60146;52.498;13.462;2023-06-04T01:06:12;101875.13;;;14.30
72236;BMP280;60146;52.498;13.462;2023-06-04T01:08:39;101879.91;;;14.23
72236;BMP280;60146;52.498;13.462;2023-06-04T01:11:08;101884.66;;;14.26
72236;BMP280;60146;52.498;13.462;2023-06-04T01:13:33;101876.72;;;14.31
72236;BMP280;60146;52.498;13.462;2023-06-04T01:15:58;101881.81;;;14.18
72236;BMP280;60146;52.498;13.462;2023-06-04T01:18:27;101873.38;;;14.16
72236;BMP280;60146;52.498;13.462;2023-06-04T01:21:05;101872.88;;;14.09
72236;BMP280;60146;52.498;13.462;2023-06-04T01:23:51;101878.16;;;14.09
72236;BMP280;60146;52.498;13.462;2023-06-04T01:26:30;101884.19;;;14.19
72236;BMP280;60146;52.498;13.462;2023-06-04T01:28:56;101873.63;;;14.19
72236;BMP280;60146;52.498;13.462;2023-06-04T01:31:23;101868.94;;;14.12
72236;BMP280;60146;52.498;13.462;2023-06-04T01:33:53;101880.56;;;14.06
72236;BMP280;60146;52.498;13.462;2023-06-04T01:36:19;101874.53;;;14.00
72236;BMP280;60146;52.498;13.462;2023-06-04T01:38:44;101874.81;;;13.99
72236;BMP280;60146;52.498;13.462;2023-06-04T01:41:11;101870.88;;;13.96
72236;BMP280;60146;52.498;13.462;2023-06-04T01:43:37;101867.97;;;13.93
72236;BMP280;60146;52.498;13.462;2023-06-04T01:46:02;101882.78;;;13.89
72236;BMP280;60146;52.498;13.462;2023-06-04T01:48:28;101870.66;;;13.88
72236;BMP280;60146;52.498;13.462;2023-06-04T01:50:54;101867.03;;;13.79
72236;BMP280;60146;52.498;13.462;2023-06-04T01:53:20;101867.53;;;13.81
72236;BMP280;60146;52.498;13.462;2023-06-04T01:55:45;101867.81;;;13.80
72236;BMP280;60146;52.498;13.462;2023-06-04T01:58:11;101873.88;;;13.76
72236;BMP280;60146;52.498;13.462;2023-06-04T02:00:36;101872.31;;;13.75
72236;BMP280;60146;52.498;13.462;2023-06-04T02:03:01;101866.78;;;13.71
72236;BMP280;60146;52.498;13.462;2023-06-04T02:05:27;101867.31;;;13.73
72236;BMP280;60146;52.498;13.462;2023-06-04T02:07:52;101863.13;;;13.67
72236;BMP280;60146;52.498;13.462;2023-06-04T02:10:19;101859.69;;;13.67
72236;BMP280;60146;52.498;13.462;2023-06-04T02:13:01;101860.22;;;13.64
72236;BMP280;60146;52.498;13.462;2023-06-04T02:15:31;101858.16;;;13.61
72236;BMP280;60146;52.498;13.462;2023-06-04T02:17:58;101858.66;;;13.58
72236;BMP280;60146;52.498;13.462;2023-06-04T02:20:28;101855.78;;;13.59
72236;BMP280;60146;52.498;13.462;2023-06-04T02:22:54;101863.16;;;13.57
72236;BMP280;60146;52.498;13.462;2023-06-04T02:25:20;101862.34;;;13.67
72236;BMP280;60146;52.498;13.462;2023-06-04T02:27:45;101864.72;;;13.58
72236;BMP280;60146;52.498;13.462;2023-06-04T02:30:11;101860.25;;;13.59
72236;BMP280;60146;52.498;13.462;2023-06-04T02:32:36;101857.66;;;13.54
72236;BMP280;60146;52.498;13.462;2023-06-04T02:35:03;101859.75;;;13.52
72236;BMP280;60146;52.498;13.462;2023-06-04T02:37:28;101855.56;;;13.46
72236;BMP280;60146;52.498;13.462;2023-06-04T02:39:55;101860.28;;;13.49
72236;BMP280;60146;52.498;13.462;2023-06-04T02:42:20;101855.34;;;13.43
72236;BMP280;60146;52.498;13.462;2023-06-04T02:44:45;101864.31;;;13.37
72236;BMP280;60146;52.498;13.462;2023-06-04T02:47:11;101868.78;;;13.37
72236;BMP280;60146;52.498;13.462;2023-06-04T02:49:36;101868.25;;;13.35
72236;BMP280;60146;52.498;13.462;2023-06-04T02:52:01;101874.84;;;13.37
72236;BMP280;60146;52.498;13.462;2023-06-04T02:54:26;101876.16;;;13.35
72236;BMP280;60146;52.498;13.462;2023-06-04T02:56:52;101877.19;;;13.38
72236;BMP280;60146;52.498;13.462;2023-06-04T02:59:18;101869.31;;;13.34
72236;BMP280;60146;52.498;13.462;2023-06-04T03:01:44;101875.63;;;13.42
72236;BMP280;60146;52.498;13.462;2023-06-04T03:04:10;101869.84;;;13.36
72236;BMP280;60146;52.498;13.462;2023-06-04T03:06:40;101868.25;;;13.35
72236;BMP280;60146;52.498;13.462;2023-06-04T03:09:10;101868.25;;;13.35
72236;BMP280;60146;52.498;13.462;2023-06-04T03:11:36;101868.03;;;13.31
72236;BMP280;60146;52.498;13.462;2023-06-04T03:14:01;101867.75;;;13.33
72236;BMP280;60146;52.498;13.462;2023-06-04T03:16:26;101866.69;;;13.29
72236;BMP280;60146;52.498;13.462;2023-06-04T03:18:52;101866.69;;;13.34
72236;BMP280;60146;52.498;13.462;2023-06-04T03:21:17;101865.63;;;13.35
72236;BMP280;60146;52.498;13.462;2023-06-04T03:23:43;101861.94;;;13.36
72236;BMP280;60146;52.498;13.462;2023-06-04T03:26:08;101865.09;;;13.37
72236;BMP280;60146;52.498;13.462;2023-06-04T03:28:34;101862.19;;;13.39
72236;BMP280;60146;52.498;13.462;2023-06-04T03:30:59;101862.72;;;13.41
72236;BMP280;60146;52.498;13.462;2023-06-04T03:33:25;101870.56;;;13.46
72236;BMP280;60146;52.498;13.462;2023-06-04T03:35:51;101876.91;;;13.50
72236;BMP280;60146;52.498;13.462;2023-06-04T03:38:17;101868.44;;;13.53
72236;BMP280;60146;52.498;13.462;2023-06-04T03:40:43;101876.09;;;13.54
72236;BMP280;60146;52.498;13.462;2023-06-04T03:43:09;101874.47;;;13.58
72236;BMP280;60146;52.498;13.462;2023-06-04T03:45:34;101874.47;;;13.58
72236;BMP280;60146;52.498;13.462;2023-06-04T03:48:00;101873.69;;;13.62
72236;BMP280;60146;52.498;13.462;2023-06-04T03:50:25;101878.41;;;13.65
72236;BMP280;60146;52.498;13.462;2023-06-04T03:52:51;101875.50;;;13.72
72236;BMP280;60146;52.498;13.462;2023-06-04T03:55:16;101878.09;;;13.76
72236;BMP280;60146;52.498;13.462;2023-06-04T03:57:41;101879.66;;;13.77
72236;BMP280;60146;52.498;13.462;2023-06-04T04:00:09;101870.16;;;13.81
72236;BMP280;60146;52.498;13.462;2023-06-04T04:02:37;101874.91;;;13.84
72236;BMP280;60146;52.498;13.462;2023-06-04T04:05:03;101871.44;;;13.89
72236;BMP280;60146;52.498;13.462;2023-06-04T04:07:28;101874.53;;;14.00
72236;BMP280;60146;52.498;13.462;2023-06-04T04:09:53;101875.22;;;14.15
72236;BMP280;60146;52.498;13.462;2023-06-04T04:12:19;101882.13;;;14.12
72236;BMP280;60146;52.498;13.462;2023-06-04T04:14:44;101880.94;;;14.27
72236;BMP280;60146;52.498;13.462;2023-06-04T04:17:11;101881.41;;;14.34
72236;BMP280;60146;52.498;13.462;2023-06-04T04:19:38;101877.75;;;14.35
72236;BMP280;60146;52.498;13.462;2023-06-04T04:22:03;101872.41;;;14.40
72236;BMP280;60146;52.498;13.462;2023-06-04T04:24:28;101886.13;;;14.42
72236;BMP280;60146;52.498;13.462;2023-06-04T04:26:54;101886.56;;;14.49
72236;BMP280;60146;52.498;13.462;2023-06-04T04:29:20;101890.50;;;14.56
72236;BMP280;60146;52.498;13.462;2023-06-04T04:31:50;101892.63;;;14.54
72236;BMP280;60146;52.498;13.462;2023-06-04T04:34:15;101879.28;;;14.69
72236;BMP280;60146;52.498;13.462;2023-06-04T04:36:42;101886.13;;;14.97
72236;BMP280;60146;52.498;13.462;2023-06-04T04:39:07;101889.59;;;15.44
72236;BMP280;60146;52.498;13.462;2023-06-04T04:41:33;101880.91;;;15.79
72236;BMP280;60146;52.498;13.462;2023-06-04T04:44:05;101888.53;;;15.81
72236;BMP280;60146;52.498;13.462;2023-06-04T04:46:31;101881.88;;;15.65
72236;BMP280;60146;52.498;13.462;2023-06-04T04:48:56;101893.94;;;15.53
72236;BMP280;60146;52.498;13.462;2023-06-04T04:51:22;101883.59;;;15.38
72236;BMP280;60146;52.498;13.462;2023-06-04T04:53:47;101885.19;;;15.34
72236;BMP280;60146;52.498;13.462;2023-06-04T04:56:13;101882.84;;;15.33
72236;BMP280;60146;52.498;13.462;2023-06-04T04:58:38;101890.59;;;15.25
72236;BMP280;60146;52.498;13.462;2023-06-04T05:01:04;101888.44;;;15.27
72236;BMP280;60146;52.498;13.462;2023-06-04T05:03:29;101892.38;;;15.29
72236;BMP280;60146;52.498;13.462;2023-06-04T05:05:55;101894.16;;;15.38
72236;BMP280;60146;52.498;13.462;2023-06-04T05:08:20;101895.06;;;15.47
72236;BMP280;60146;52.498;13.462;2023-06-04T05:10:45;101898.66;;;15.56
72236;BMP280;60146;52.498;13.462;2023-06-04T05:13:11;101898.44;;;15.52
72236;BMP280;60146;52.498;13.462;2023-06-04T05:15:36;101892.25;;;15.62
72236;BMP280;60146;52.498;13.462;2023-06-04T05:18:02;101888.06;;;15.56
72236;BMP280;60146;52.498;13.462;2023-06-04T05:20:29;101891.78;;;15.55
72236;BMP280;60146;52.498;13.462;2023-06-04T05:22:54;101899.84;;;15.68
72236;BMP280;60146;52.498;13.462;2023-06-04T05:25:20;101909.78;;;15.76
72236;BMP280;60146;52.498;13.462;2023-06-04T05:27:46;101904.34;;;15.86
72236;BMP280;60146;52.498;13.462;2023-06-04T05:30:14;101894.19;;;15.74
72236;BMP280;60146;52.498;13.462;2023-06-04T05:32:40;101891.50;;;15.79
72236;BMP280;60146;52.498;13.462;2023-06-04T05:35:06;101900.84;;;15.90
72236;BMP280;60146;52.498;13.462;2023-06-04T05:37:32;101897.63;;;15.93
72236;BMP280;60146;52.498;13.462;2023-06-04T05:39:59;101901.97;;;16.02
72236;BMP280;60146;52.498;13.462;2023-06-04T05:42:25;101896.13;;;16.23
72236;BMP280;60146;52.498;13.462;2023-06-04T05:44:50;101902.25;;;16.37
72236;BMP280;60146;52.498;13.462;2023-06-04T05:47:16;101905.00;;;16.45
72236;BMP280;60146;52.498;13.462;2023-06-04T05:49:42;101912.09;;;16.49
72236;BMP280;60146;52.498;13.462;2023-06-04T05:52:07;101910.53;;;16.49
72236;BMP280;60146;52.498;13.462;2023-06-04T05:54:33;101913.28;;;16.57
72236;BMP280;60146;52.498;13.462;2023-06-04T05:56:58;101915.47;;;16.68
72236;BMP280;60146;52.498;13.462;2023-06-04T05:59:24;101900.31;;;16.87
72236;BMP280;60146;52.498;13.462;2023-06-04T06:01:49;101904.22;;;17.02
72236;BMP280;60146;52.498;13.462;2023-06-04T06:04:15;101909.06;;;17.00
72236;BMP280;60146;52.498;13.462;2023-06-04T06:06:41;101910.75;;;17.09
72236;BMP280;60146;52.498;13.462;2023-06-04T06:09:10;101911.34;;;17.20
72236;BMP280;60146;52.498;13.462;2023-06-04T06:11:36;101916.31;;;17.21
72236;BMP280;60146;52.498;13.462;2023-06-04T06:14:01;101921.41;;;17.31
72236;BMP280;60146;52.498;13.462;2023-06-04T06:16:26;101920.31;;;17.45
72236;BMP280;60146;52.498;13.462;2023-06-04T06:18:52;101916.22;;;17.52
72236;BMP280;60146;52.498;13.462;2023-06-04T06:21:18;101930.63;;;17.60
72236;BMP280;60146;52.498;13.462;2023-06-04T06:23:43;101912.94;;;17.68
72236;BMP280;60146;52.498;13.462;2023-06-04T06:26:08;101921.03;;;17.85
72236;BMP280;60146;52.498;13.462;2023-06-04T06:28:34;101925.94;;;17.91
72236;BMP280;60146;52.498;13.462;2023-06-04T06:31:01;101923.34;;;18.00
72236;BMP280;60146;52.498;13.462;2023-06-04T06:33:27;101932.16;;;18.08
72236;BMP280;60146;52.498;13.462;2023-06-04T06:35:52;101931.44;;;18.16
72236;BMP280;60146;52.498;13.462;2023-06-04T06:38:17;101932.38;;;18.20
72236;BMP280;60146;52.498;13.462;2023-06-04T06:40:43;101921.53;;;18.30
72236;BMP280;60146;52.498;13.462;2023-06-04T06:43:08;101934.75;;;18.43
72236;BMP280;60146;52.498;13.462;2023-06-04T06:45:35;101924.78;;;18.48
72236;BMP280;60146;52.498;13.462;2023-06-04T06:48:00;101929.06;;;18.49
72236;BMP280;60146;52.498;13.462;2023-06-04T06:50:26;101926.97;;;18.46
72236;BMP280;60146;52.498;13.462;2023-06-04T06:52:51;101928.81;;;18.46
72236;BMP280;60146;52.498;13.462;2023-06-04T06:55:16;101925.88;;;18.47
72236;BMP280;60146;52.498;13.462;2023-06-04T06:57:42;101918.88;;;18.51
72236;BMP280;60146;52.498;13.462;2023-06-04T07:00:08;101926.84;;;18.51
72236;BMP280;60146;52.498;13.462;2023-06-04T07:02:34;101921.00;;;18.62
72236;BMP280;60146;52.498;13.462;2023-06-04T07:04:59;101927.59;;;18.73
72236;BMP280;60146;52.498;13.462;2023-06-04T07:07:25;101928.72;;;18.80
72236;BMP280;60146;52.498;13.462;2023-06-04T07:09:50;101923.88;;;18.82
72236;BMP280;60146;52.498;13.462;2023-06-04T07:12:16;101922.50;;;18.93
72236;BMP280;60146;52.498;13.462;2023-06-04T07:14:42;101929.41;;;18.94
72236;BMP280;60146;52.498;13.462;2023-06-04T07:17:07;101926.75;;;18.94
72236;BMP280;60146;52.498;13.462;2023-06-04T07:19:33;101917.72;;;19.03
72236;BMP280;60146;52.498;13.462;2023-06-04T07:21:58;101925.44;;;19.21
72236;BMP280;60146;52.498;13.462;2023-06-04T07:24:23;101930.31;;;19.28
72236;BMP280;60146;52.498;13.462;2023-06-04T07:26:49;101926.72;;;19.40
72236;BMP280;60146;52.498;13.462;2023-06-04T07:29:15;101920.22;;;19.54
72236;BMP280;60146;52.498;13.462;2023-06-04T07:31:41;101919.88;;;19.64
72236;BMP280;60146;52.498;13.462;2023-06-04T07:34:06;101924.28;;;19.77
72236;BMP280;60146;52.498;13.462;2023-06-04T07:36:31;101924.13;;;19.65
72236;BMP280;60146;52.498;13.462;2023-06-04T07:38:57;101919.59;;;19.74
72236;BMP280;60146;52.498;13.462;2023-06-04T07:41:23;101931.97;;;19.95
72236;BMP280;60146;52.498;13.462;2023-06-04T07:43:48;101928.31;;;20.16
72236;BMP280;60146;52.498;13.462;2023-06-04T07:46:14;101940.38;;;20.38
72236;BMP280;60146;52.498;13.462;2023-06-04T07:48:43;101927.91;;;20.59
72236;BMP280;60146;52.498;13.462;2023-06-04T07:51:09;101922.72;;;20.62
72236;BMP280;60146;52.498;13.462;2023-06-04T07:53:34;101927.19;;;20.78
72236;BMP280;60146;52.498;13.462;2023-06-04T07:56:00;101924.28;;;21.00
72236;BMP280;60146;52.498;13.462;2023-06-04T07:58:26;101922.22;;;21.05
72236;BMP280;60146;52.498;13.462;2023-06-04T08:00:52;101927.16;;;20.86
72236;BMP280;60146;52.498;13.462;2023-06-04T08:03:17;101922.41;;;21.00
72236;BMP280;60146;52.498;13.462;2023-06-04T08:05:45;101924.66;;;21.18
72236;BMP280;60146;52.498;13.462;2023-06-04T08:08:10;101913.16;;;21.26
72236;BMP280;60146;52.498;13.462;2023-06-04T08:10:36;101917.25;;;21.43
72236;BMP280;60146;52.498;13.462;2023-06-04T08:13:02;101923.06;;;21.45
72236;BMP280;60146;52.498;13.462;2023-06-04T08:15:27;101916.59;;;21.46
72236;BMP280;60146;52.498;13.462;2023-06-04T08:17:53;101925.66;;;21.34
72236;BMP280;60146;52.498;13.462;2023-06-04T08:20:18;101917.66;;;21.34
72236;BMP280;60146;52.498;13.462;2023-06-04T08:22:44;101923.81;;;21.46
72236;BMP280;60146;52.498;13.462;2023-06-04T08:25:09;101914.66;;;21.55
72236;BMP280;60146;52.498;13.462;2023-06-04T08:27:35;101914.13;;;21.61
72236;BMP280;60146;52.498;13.462;2023-06-04T08:30:01;101920.19;;;21.70
72236;BMP280;60146;52.498;13.462;2023-06-04T08:32:27;101921.72;;;21.91
72236;BMP280;60146;52.498;13.462;2023-06-04T08:34:52;101921.03;;;21.94
72236;BMP280;60146;52.498;13.462;2023-06-04T08:37:18;101923.72;;;21.94
72236;BMP280;60146;52.498;13.462;2023-06-04T08:39:43;101908.53;;;21.86
72236;BMP280;60146;52.498;13.462;2023-06-04T08:42:15;101913.75;;;21.71
72236;BMP280;60146;52.498;13.462;2023-06-04T08:44:46;101919.19;;;22.06
72236;BMP280;60146;52.498;13.462;2023-06-04T08:47:15;101924.69;;;22.33
72236;BMP280;60146;52.498;13.462;2023-06-04T08:49:43;101923.19;;;23.02
72236;BMP280;60146;52.498;13.462;2023-06-04T08:52:11;101917.81;;;23.52
72236;BMP280;60146;52.498;13.462;2023-06-04T08:54:36;101920.81;;;24.04
72236;BMP280;60146;52.498;13.462;2023-06-04T08:57:03;101925.31;;;24.30
72236;BMP280;60146;52.498;13.462;2023-06-04T08:59:29;101926.53;;;25.15
72236;BMP280;60146;52.498;13.462;2023-06-04T09:01:55;101915.31;;;25.87
72236;BMP280;60146;52.498;13.462;2023-06-04T09:04:20;101920.56;;;26.74
72236;BMP280;60146;52.498;13.462;2023-06-04T09:06:46;101922.66;;;26.84
72236;BMP280;60146;52.498;13.462;2023-06-04T09:09:14;101926.25;;;27.56
72236;BMP280;60146;52.498;13.462;2023-06-04T09:11:54;101920.06;;;27.94
72236;BMP280;60146;52.498;13.462;2023-06-04T09:14:20;101927.47;;;28.60
72236;BMP280;60146;52.498;13.462;2023-06-04T09:16:50;101926.06;;;28.83
72236;BMP280;60146;52.498;13.462;2023-06-04T09:19:17;101924.31;;;29.34
72236;BMP280;60146;52.498;13.462;2023-06-04T09:21:56;101918.97;;;29.65
72236;BMP280;60146;52.498;13.462;2023-06-04T09:24:39;101922.06;;;29.90
72236;BMP280;60146;52.498;13.462;2023-06-04T09:27:18;101921.47;;;30.73
72236;BMP280;60146;52.498;13.462;2023-06-04T09:29:55;101924.75;;;30.18
72236;BMP280;60146;52.498;13.462;2023-06-04T09:32:30;101925.66;;;30.88
72236;BMP280;60146;52.498;13.462;2023-06-04T09:35:13;101919.38;;;31.64
72236;BMP280;60146;52.498;13.462;2023-06-04T09:37:40;101924.53;;;31.91
72236;BMP280;60146;52.498;13.462;2023-06-04T09:40:06;101921.03;;;31.91
72236;BMP280;60146;52.498;13.462;2023-06-04T09:42:46;101915.63;;;31.91
72236;BMP280;60146;52.498;13.462;2023-06-04T09:45:12;101915.03;;;32.09
72236;BMP280;60146;52.498;13.462;2023-06-04T09:47:44;101917.31;;;32.14
72236;BMP280;60146;52.498;13.462;2023-06-04T09:50:12;101917.56;;;32.59
72236;BMP280;60146;52.498;13.462;2023-06-04T09:52:38;101913.03;;;32.49
72236;BMP280;60146;52.498;13.462;2023-06-04T09:55:25;101909.94;;;32.15
72236;BMP280;60146;52.498;13.462;2023-06-04T09:57:51;101915.38;;;32.47
72236;BMP280;60146;52.498;13.462;2023-06-04T10:00:21;101913.56;;;32.67
72236;BMP280;60146;52.498;13.462;2023-06-04T10:02:48;101913.00;;;32.82
72236;BMP280;60146;52.498;13.462;2023-06-04T10:05:14;101910.88;;;33.40
72236;BMP280;60146;52.498;13.462;2023-06-04T10:07:45;101903.03;;;34.28
72236;BMP280;60146;52.498;13.462;2023-06-04T10:10:15;101906.84;;;35.00
72236;BMP280;60146;52.498;13.462;2023-06-04T10:12:41;101911.03;;;35.04
72236;BMP280;60146;52.498;13.462;2023-06-04T10:15:12;101906.34;;;35.48
72236;BMP280;60146;52.498;13.462;2023-06-04T10:17:38;101905.09;;;35.36
72236;BMP280;60146;52.498;13.462;2023-06-04T10:20:03;101896.84;;;34.93
72236;BMP280;60146;52.498;13.462;2023-06-04T10:22:37;101892.81;;;35.60
72236;BMP280;60146;52.498;13.462;2023-06-04T10:25:03;101908.59;;;36.08
72236;BMP280;60146;52.498;13.462;2023-06-04T10:27:32;101907.78;;;35.24
72236;BMP280;60146;52.498;13.462;2023-06-04T10:30:01;101912.63;;;34.86
72236;BMP280;60146;52.498;13.462;2023-06-04T10:32:28;101909.03;;;35.35
72236;BMP280;60146;52.498;13.462;2023-06-04T10:34:54;101892.59;;;35.66
72236;BMP280;60146;52.498;13.462;2023-06-04T10:37:24;101902.88;;;36.54
72236;BMP280;60146;52.498;13.462;2023-06-04T10:39:51;101901.56;;;36.83
72236;BMP280;60146;52.498;13.462;2023-06-04T10:42:17;101898.38;;;36.60
72236;BMP280;60146;52.498;13.462;2023-06-04T10:44:48;101903.94;;;38.01
72236;BMP280;60146;52.498;13.462;2023-06-04T10:47:27;101898.94;;;38.38
72236;BMP280;60146;52.498;13.462;2023-06-04T10:50:12;101903.50;;;38.32
72236;BMP280;60146;52.498;13.462;2023-06-04T10:52:39;101895.50;;;37.66
72236;BMP280;60146;52.498;13.462;2023-06-04T10:55:15;101899.16;;;37.30
72236;BMP280;60146;52.498;13.462;2023-06-04T10:57:59;101896.41;;;36.48
72236;BMP280;60146;52.498;13.462;2023-06-04T11:00:39;101902.31;;;35.95
72236;BMP280;60146;52.498;13.462;2023-06-04T11:03:06;101892.78;;;36.51
72236;BMP280;60146;52.498;13.462;2023-06-04T11:05:39;101895.50;;;37.00
72236;BMP280;60146;52.498;13.462;2023-06-04T11:08:06;101899.91;;;37.30
72236;BMP280;60146;52.498;13.462;2023-06-04T11:10:33;101891.09;;;37.89
72236;BMP280;60146;52.498;13.462;2023-06-04T11:13:00;101897.81;;;37.34
72236;BMP280;60146;52.498;13.462;2023-06-04T11:15:25;101893.78;;;36.81
72236;BMP280;60146;52.498;13.462;2023-06-04T11:17:55;101888.34;;;37.68
72236;BMP280;60146;52.498;13.462;2023-06-04T11:20:22;101882.88;;;37.89
72236;BMP280;60146;52.498;13.462;2023-06-04T11:22:58;101890.56;;;38.03
72236;BMP280;60146;52.498;13.462;2023-06-04T11:25:25;101886.97;;;37.52
72236;BMP280;60146;52.498;13.462;2023-06-04T11:27:52;101885.03;;;38.23
72236;BMP280;60146;52.498;13.462;2023-06-04T11:30:18;101873.06;;;38.47
72236;BMP280;60146;52.498;13.462;2023-06-04T11:32:44;101878.38;;;38.98
72236;BMP280;60146;52.498;13.462;2023-06-04T11:35:10;101888.28;;;37.39
72236;BMP280;60146;52.498;13.462;2023-06-04T11:37:36;101869.97;;;39.10
72236;BMP280;60146;52.498;13.462;2023-06-04T11:40:03;101879.81;;;39.77
72236;BMP280;60146;52.498;13.462;2023-06-04T11:42:31;101868.00;;;39.02
72236;BMP280;60146;52.498;13.462;2023-06-04T11:44:57;101872.31;;;40.72
72236;BMP280;60146;52.498;13.462;2023-06-04T11:47:23;101871.03;;;40.36
72236;BMP280;60146;52.498;13.462;2023-06-04T11:49:55;101876.78;;;41.06
72236;BMP280;60146;52.498;13.462;2023-06-04T11:52:21;101877.56;;;41.35
72236;BMP280;60146;52.498;13.462;2023-06-04T11:54:47;101878.78;;;39.57
72236;BMP280;60146;52.498;13.462;2023-06-04T11:57:15;101874.88;;;39.23
72236;BMP280;60146;52.498;13.462;2023-06-04T11:59:40;101873.63;;;39.50
72236;BMP280;60146;52.498;13.462;2023-06-04T12:02:07;101874.19;;;39.72
72236;BMP280;60146;52.498;13.462;2023-06-04T12:04:32;101868.69;;;40.66
72236;BMP280;60146;52.498;13.462;2023-06-04T12:06:59;101870.16;;;41.41
72236;BMP280;60146;52.498;13.462;2023-06-04T12:09:29;101870.69;;;41.03
72236;BMP280;60146;52.498;13.462;2023-06-04T12:12:03;101873.66;;;39.99
72236;BMP280;60146;52.498;13.462;2023-06-04T12:14:29;101863.28;;;39.02
72236;BMP280;60146;52.498;13.462;2023-06-04T12:16:59;101868.66;;;37.61
72236;BMP280;60146;52.498;13.462;2023-06-04T12:19:25;101873.34;;;37.81
72236;BMP280;60146;52.498;13.462;2023-06-04T12:22:07;101860.44;;;37.61
72236;BMP280;60146;52.498;13.462;2023-06-04T12:24:34;101851.22;;;38.35
72236;BMP280;60146;52.498;13.462;2023-06-04T12:27:07;101854.56;;;39.12
72236;BMP280;60146;52.498;13.462;2023-06-04T12:29:33;101861.09;;;39.49
72236;BMP280;60146;52.498;13.462;2023-06-04T12:32:08;101850.59;;;38.70
72236;BMP280;60146;52.498;13.462;2023-06-04T12:34:34;101862.34;;;39.40
72236;BMP280;60146;52.498;13.462;2023-06-04T12:37:00;101854.34;;;38.54
72236;BMP280;60146;52.498;13.462;2023-06-04T12:39:26;101852.59;;;39.30
72236;BMP280;60146;52.498;13.462;2023-06-04T12:41:51;101854.06;;;39.97
72236;BMP280;60146;52.498;13.462;2023-06-04T12:44:17;101847.41;;;39.90
72236;BMP280;60146;52.498;13.462;2023-06-04T12:46:42;101844.00;;;40.94
72236;BMP280;60146;52.498;13.462;2023-06-04T12:49:07;101842.53;;;41.21
72236;BMP280;60146;52.498;13.462;2023-06-04T12:51:33;101855.59;;;41.54
72236;BMP280;60146;52.498;13.462;2023-06-04T12:53:58;101847.06;;;41.24
72236;BMP280;60146;52.498;13.462;2023-06-04T12:56:24;101845.16;;;40.65
72236;BMP280;60146;52.498;13.462;2023-06-04T12:58:59;101841.53;;;40.96
72236;BMP280;60146;52.498;13.462;2023-06-04T13:01:25;101841.81;;;40.61
72236;BMP280;60146;52.498;13.462;2023-06-04T13:03:50;101841.81;;;40.61
72236;BMP280;60146;52.498;13.462;2023-06-04T13:06:15;101844.59;;;41.26
72236;BMP280;60146;52.498;13.462;2023-06-04T13:08:41;101840.88;;;40.64
72236;BMP280;60146;52.498;13.462;2023-06-04T13:11:06;101841.16;;;40.66
72236;BMP280;60146;52.498;13.462;2023-06-04T13:13:33;101842.75;;;40.04
72236;BMP280;60146;52.498;13.462;2023-06-04T13:15:58;101844.53;;;40.16
72236;BMP280;60146;52.498;13.462;2023-06-04T13:18:23;101843.16;;;40.20
72236;BMP280;60146;52.498;13.462;2023-06-04T13:20:49;101839.16;;;39.90
72236;BMP280;60146;52.498;13.462;2023-06-04T13:23:15;101852.72;;;40.02
72236;BMP280;60146;52.498;13.462;2023-06-04T13:25:40;101848.13;;;39.41
72236;BMP280;60146;52.498;13.462;2023-06-04T13:28:08;101847.06;;;39.21
72236;BMP280;60146;52.498;13.462;2023-06-04T13:30:35;101841.59;;;38.22
72236;BMP280;60146;52.498;13.462;2023-06-04T13:33:02;101838.75;;;38.34
72236;BMP280;60146;52.498;13.462;2023-06-04T13:35:27;101824.16;;;38.07
72236;BMP280;60146;52.498;13.462;2023-06-04T13:37:54;101835.31;;;37.83
72236;BMP280;60146;52.498;13.462;2023-06-04T13:40:19;101816.47;;;37.23
72236;BMP280;60146;52.498;13.462;2023-06-04T13:42:45;101824.22;;;36.46